createdAt,value
2018-08-24T00:00:57.014Z,2.30
2018-08-24T00:03:36.089Z,3.83
2018-08-24T00:06:05.695Z,2.23
2018-08-24T00:08:34.859Z,1.73
2018-08-24T00:11:03.987Z,1.43
2018-08-24T00:13:33.050Z,1.50
2018-08-24T00:16:02.120Z,1.80
2018-08-24T00:18:31.201Z,3.57
2018-08-24T00:21:00.334Z,1.80
2018-08-24T00:23:29.435Z,1.70
2018-08-24T00:25:58.553Z,1.40
2018-08-24T00:28:27.898Z,1.53
2018-08-24T00:30:57.254Z,1.90
2018-08-24T00:33:26.479Z,2.40
2018-08-24T00:35:55.583Z,1.90
2018-08-24T00:38:24.713Z,1.83
2018-08-24T00:40:57.046Z,2.10
2018-08-24T00:43:27.191Z,1.90
2018-08-24T00:45:56.335Z,2.23
2018-08-24T00:48:25.493Z,2.07
2018-08-24T00:50:55.173Z,2.30
2018-08-24T00:53:24.954Z,3.00
2018-08-24T00:55:54.058Z,2.50
2018-08-24T00:58:23.127Z,2.40
2018-08-24T01:00:56.401Z,2.87
2018-08-24T01:03:26.959Z,3.33
2018-08-24T01:05:56.084Z,3.40
2018-08-24T01:08:25.216Z,3.77
2018-08-24T01:10:54.306Z,4.20
2018-08-24T01:13:23.423Z,4.10
2018-08-24T01:15:56.935Z,4.40
2018-08-24T01:18:31.221Z,4.83
2018-08-24T01:21:01.359Z,4.93
2018-08-24T01:23:31.711Z,5.57
2018-08-24T01:26:02.776Z,5.13
2018-08-24T01:28:32.326Z,9.73
2018-08-24T01:31:04.972Z,20.00
2018-08-24T01:33:34.402Z,24.00
2018-08-24T01:36:03.563Z,27.07
2018-08-24T01:38:32.735Z,23.47
2018-08-24T01:41:01.928Z,22.43
2018-08-24T01:43:31.037Z,23.07
2018-08-24T01:46:05.799Z,18.60
2018-08-24T01:48:34.935Z,24.77
2018-08-24T01:51:04.029Z,24.00
2018-08-24T01:53:33.229Z,32.10
2018-08-24T01:56:02.347Z,34.70
2018-08-24T01:58:31.436Z,33.50
2018-08-24T02:01:00.567Z,26.07
2018-08-24T02:03:29.670Z,25.80
2018-08-24T02:06:04.150Z,31.33
2018-08-24T02:08:33.327Z,46.70
2018-08-24T02:11:20.112Z,40.07
2018-08-24T02:13:56.986Z,42.90
2018-08-24T02:16:29.215Z,39.93
2018-08-24T02:19:03.538Z,34.43
2018-08-24T02:22:41.581Z,26.00
2018-08-24T02:25:10.634Z,17.50
2018-08-24T02:27:39.752Z,15.93
2018-08-24T02:30:08.910Z,21.03
2018-08-24T02:32:38.012Z,23.27
2018-08-24T02:35:08.615Z,30.80
2018-08-24T02:37:37.792Z,49.83
2018-08-24T02:40:07.029Z,47.00
2018-08-24T02:42:36.156Z,50.93
2018-08-24T02:45:05.494Z,51.87
2018-08-24T02:47:34.558Z,46.87
2018-08-24T02:50:03.688Z,36.30
2018-08-24T02:52:32.791Z,28.93
2018-08-24T02:55:02.187Z,25.90
2018-08-24T02:57:31.324Z,19.07
2018-08-24T03:00:00.550Z,17.77
2018-08-24T03:02:30.042Z,14.97
2018-08-24T03:04:59.190Z,14.67
2018-08-24T03:07:29.307Z,13.17
2018-08-24T03:09:58.382Z,13.17
2018-08-24T03:12:28.880Z,12.03
2018-08-24T03:14:57.971Z,12.07
2018-08-24T03:17:32.449Z,11.17
2018-08-24T03:20:01.583Z,10.40
2018-08-24T03:22:30.693Z,10.77
2018-08-24T03:24:59.770Z,9.17
2018-08-24T03:27:28.812Z,8.03
2018-08-24T03:29:58.032Z,6.80
2018-08-24T03:32:27.204Z,6.87
2018-08-24T03:34:56.307Z,6.20
2018-08-24T03:37:25.397Z,6.27
2018-08-24T03:39:54.569Z,6.00
2018-08-24T03:42:23.645Z,6.20
2018-08-24T03:44:52.758Z,6.70
2018-08-24T03:47:22.059Z,6.53
2018-08-24T03:49:51.156Z,6.10
2018-08-24T03:52:20.246Z,6.17
2018-08-24T03:54:49.313Z,6.20
2018-08-24T03:57:18.408Z,6.47
2018-08-24T03:59:47.515Z,6.70
2018-08-24T04:02:16.666Z,7.03
2018-08-24T04:04:45.752Z,7.13
2018-08-24T04:07:15.604Z,7.70
2018-08-24T04:09:44.802Z,7.67
2018-08-24T04:12:13.932Z,7.93
2018-08-24T04:14:43.036Z,7.97
2018-08-24T04:17:17.390Z,8.67
2018-08-24T04:19:46.490Z,8.63
2018-08-24T04:22:15.573Z,8.70
2018-08-24T04:24:44.659Z,9.03
2018-08-24T04:27:13.796Z,8.90
2018-08-24T04:29:42.881Z,9.00
2018-08-24T04:32:12.063Z,8.80
2018-08-24T04:34:41.246Z,8.70
2018-08-24T04:37:10.624Z,8.97
2018-08-24T04:39:39.763Z,8.80
2018-08-24T04:42:08.849Z,8.67
2018-08-24T04:44:37.926Z,9.70
2018-08-24T04:47:07.092Z,8.97
2018-08-24T04:49:36.164Z,8.67
2018-08-24T04:52:05.351Z,9.63
2018-08-24T04:54:34.471Z,9.70
2018-08-24T04:57:03.553Z,9.63
2018-08-24T04:59:32.750Z,10.70
2018-08-24T05:02:01.905Z,10.27
2018-08-24T05:04:30.959Z,10.27
2018-08-24T05:07:00.097Z,10.90
2018-08-24T05:09:29.210Z,10.60
2018-08-24T05:11:58.285Z,11.20
2018-08-24T05:14:27.399Z,10.63
2018-08-24T05:16:56.520Z,12.13
2018-08-24T05:19:26.944Z,11.50
2018-08-24T05:21:56.128Z,11.67
2018-08-24T05:24:25.366Z,11.87
2018-08-24T05:26:54.457Z,12.07
2018-08-24T05:29:23.665Z,11.93
2018-08-24T05:31:52.797Z,11.93
2018-08-24T05:34:22.584Z,12.57
2018-08-24T05:36:51.787Z,11.80
2018-08-24T05:39:21.838Z,11.60
2018-08-24T05:41:50.944Z,12.23
2018-08-24T05:44:19.998Z,11.23
2018-08-24T05:46:49.107Z,11.97
2018-08-24T05:49:18.197Z,12.57
2018-08-24T05:51:47.303Z,13.30
2018-08-24T05:54:17.290Z,12.53
2018-08-24T05:56:47.411Z,13.40
2018-08-24T05:59:16.536Z,13.00
2018-08-24T06:01:45.628Z,13.77
2018-08-24T06:04:14.750Z,13.43
2018-08-24T06:06:44.018Z,14.23
2018-08-24T06:09:15.010Z,13.53
2018-08-24T06:11:44.886Z,13.90
2018-08-24T06:14:14.557Z,12.90
2018-08-24T06:16:49.147Z,14.03
2018-08-24T06:19:18.804Z,13.90
2018-08-24T06:21:47.943Z,14.30
2018-08-24T06:24:17.096Z,14.93
2018-08-24T06:26:46.133Z,14.37
2018-08-24T06:29:16.142Z,15.20
2018-08-24T06:31:45.423Z,14.40
2018-08-24T06:34:20.800Z,14.63
2018-08-24T06:36:50.229Z,14.27
2018-08-24T06:39:19.831Z,15.03
2018-08-24T06:41:48.953Z,13.97
2018-08-24T06:44:18.102Z,15.20
2018-08-24T06:46:47.330Z,13.47
2018-08-24T06:49:16.483Z,14.87
2018-08-24T06:51:45.654Z,14.17
2018-08-24T06:54:14.769Z,14.80
2018-08-24T06:56:43.941Z,13.50
2018-08-24T06:59:13.036Z,14.43
2018-08-24T07:01:42.127Z,12.87
2018-08-24T07:04:11.266Z,13.37
2018-08-24T07:06:40.368Z,13.17
2018-08-24T07:09:10.020Z,14.27
2018-08-24T07:11:39.119Z,13.20
2018-08-24T07:14:08.220Z,14.03
2018-08-24T07:16:37.344Z,13.97
2018-08-24T07:19:06.469Z,14.33
2018-08-24T07:21:35.590Z,14.57
2018-08-24T07:24:04.688Z,13.57
2018-08-24T07:26:33.844Z,14.10
2018-08-24T07:29:06.276Z,13.47
2018-08-24T07:31:35.748Z,14.27
2018-08-24T07:34:04.902Z,14.30
2018-08-24T07:36:34.060Z,17.90
2018-08-24T07:39:03.247Z,15.60
2018-08-24T07:41:32.479Z,15.00
2018-08-24T07:44:01.494Z,13.93
2018-08-24T07:46:30.677Z,15.17
2018-08-24T07:48:59.760Z,14.20
2018-08-24T07:51:28.899Z,14.77
2018-08-24T07:53:58.257Z,14.50
2018-08-24T07:56:29.095Z,14.33
2018-08-24T07:58:59.271Z,15.07
2018-08-24T08:01:28.921Z,14.50
2018-08-24T08:03:59.411Z,13.67
2018-08-24T08:06:28.763Z,14.00
2018-08-24T08:08:58.206Z,15.17
2018-08-24T08:11:30.768Z,14.00
2018-08-24T08:14:00.458Z,12.93
2018-08-24T08:16:29.534Z,13.33
2018-08-24T08:18:58.667Z,12.93
2018-08-24T08:21:27.836Z,11.60
2018-08-24T08:23:56.955Z,10.73
2018-08-24T08:26:26.112Z,9.67
2018-08-24T08:28:55.311Z,9.00
2018-08-24T08:31:24.425Z,8.47
2018-08-24T08:33:53.490Z,7.27
2018-08-24T08:36:22.599Z,7.10
2018-08-24T08:38:51.741Z,6.17
2018-08-24T08:41:20.841Z,6.50
2018-08-24T08:43:49.961Z,5.40
2018-08-24T08:46:19.035Z,5.03
2018-08-24T08:48:48.151Z,4.43
2018-08-24T08:51:17.241Z,4.83
2018-08-24T08:53:46.380Z,4.73
2018-08-24T08:56:16.559Z,4.73
2018-08-24T08:58:45.711Z,4.17
2018-08-24T09:01:14.817Z,4.60
2018-08-24T09:03:44.090Z,5.27
2018-08-24T09:06:13.258Z,5.83
2018-08-24T09:08:42.362Z,10.27
2018-08-24T09:11:11.515Z,7.77
2018-08-24T09:13:40.657Z,6.57
2018-08-24T09:16:09.930Z,6.27
2018-08-24T09:18:44.328Z,5.47
2018-08-24T09:21:18.679Z,5.30
2018-08-24T09:23:53.136Z,4.73
2018-08-24T09:26:27.314Z,6.13
2018-08-24T09:28:57.702Z,3.83
2018-08-24T09:31:28.903Z,5.20
2018-08-24T09:33:58.017Z,4.83
2018-08-24T09:36:27.136Z,4.70
2018-08-24T09:38:56.290Z,4.80
2018-08-24T09:41:25.401Z,4.10
2018-08-24T09:43:55.581Z,3.60
2018-08-24T09:46:30.849Z,4.17
2018-08-24T09:49:05.244Z,3.07
2018-08-24T09:51:34.333Z,2.50
2018-08-24T09:54:04.992Z,3.00
2018-08-24T09:56:34.971Z,2.97
2018-08-24T09:59:04.147Z,2.90
2018-08-24T10:01:38.576Z,3.20
2018-08-24T10:04:13.068Z,3.30
2018-08-24T10:06:47.360Z,2.67
2018-08-24T10:09:16.717Z,2.80
2018-08-24T10:11:45.813Z,2.50
2018-08-24T10:14:14.939Z,2.40
2018-08-24T10:16:44.072Z,2.63
2018-08-24T10:19:14.347Z,2.87
2018-08-24T10:21:43.453Z,2.77
2018-08-24T10:24:12.550Z,2.87
2018-08-24T10:26:41.654Z,2.33
2018-08-24T10:29:10.742Z,2.93
2018-08-24T10:31:39.822Z,2.20
2018-08-24T10:34:08.851Z,2.57
2018-08-24T10:36:37.928Z,2.83
2018-08-24T10:39:08.785Z,2.50
2018-08-24T10:41:37.924Z,2.93
2018-08-24T10:44:07.240Z,2.00
2018-08-24T10:46:36.336Z,1.70
2018-08-24T10:49:05.491Z,2.00
2018-08-24T10:51:34.620Z,2.60
2018-08-24T10:54:03.729Z,2.00
2018-08-24T10:56:32.858Z,1.97
2018-08-24T10:59:01.926Z,2.43
2018-08-24T11:01:30.996Z,1.90
2018-08-24T11:04:00.119Z,1.97
2018-08-24T11:06:29.175Z,2.07
2018-08-24T11:08:58.305Z,1.73
2018-08-24T11:11:27.577Z,1.63
2018-08-24T11:13:56.686Z,1.77
2018-08-24T11:16:25.773Z,2.07
2018-08-24T11:18:54.894Z,2.10
2018-08-24T11:21:23.973Z,1.60
2018-08-24T11:23:53.141Z,2.43
2018-08-24T11:26:22.303Z,1.97
2018-08-24T11:28:51.401Z,1.70
2018-08-24T11:31:20.522Z,1.70
2018-08-24T11:33:49.644Z,2.40
2018-08-24T11:36:18.816Z,1.40
2018-08-24T11:38:47.881Z,2.00
2018-08-24T11:41:17.070Z,2.23
2018-08-24T11:43:46.391Z,2.00
2018-08-24T11:46:15.470Z,1.80
2018-08-24T11:48:44.544Z,2.00
2018-08-24T11:51:13.680Z,2.10
2018-08-24T11:53:42.731Z,2.17
2018-08-24T11:56:12.479Z,2.27
2018-08-24T11:58:41.633Z,2.03
2018-08-24T12:01:10.733Z,2.20
2018-08-24T12:03:39.798Z,1.87
2018-08-24T12:06:08.921Z,1.73
2018-08-24T12:08:37.993Z,1.93
2018-08-24T12:11:07.071Z,1.77
2018-08-24T12:13:36.156Z,1.70
2018-08-24T12:16:05.308Z,2.00
2018-08-24T12:18:34.450Z,2.50
2018-08-24T12:21:03.565Z,2.00
2018-08-24T12:23:32.685Z,2.00
2018-08-24T12:26:01.865Z,1.77
2018-08-24T12:28:30.997Z,1.90
2018-08-24T12:31:00.184Z,1.87
2018-08-24T12:33:29.248Z,1.90
2018-08-24T12:35:58.329Z,2.07
2018-08-24T12:38:27.447Z,2.10
2018-08-24T12:40:56.570Z,1.97
2018-08-24T12:43:25.732Z,2.07
2018-08-24T12:45:54.850Z,1.90
2018-08-24T12:48:24.069Z,1.70
2018-08-24T12:50:53.192Z,2.00
2018-08-24T12:53:22.307Z,1.90
2018-08-24T12:55:51.450Z,1.70
2018-08-24T12:58:20.616Z,1.50
2018-08-24T13:00:49.778Z,1.70
2018-08-24T13:03:18.903Z,2.33
2018-08-24T13:05:48.105Z,2.10
2018-08-24T13:08:17.187Z,2.87
2018-08-24T13:10:46.294Z,2.17
2018-08-24T13:13:15.372Z,1.93
2018-08-24T13:15:44.500Z,2.03
2018-08-24T13:18:13.630Z,1.80
2018-08-24T13:20:42.883Z,1.43
2018-08-24T13:23:12.083Z,1.60
2018-08-24T13:25:41.180Z,1.83
2018-08-24T13:28:10.371Z,1.80
2018-08-24T13:30:39.497Z,1.63
2018-08-24T13:33:08.801Z,1.60
2018-08-24T13:35:38.317Z,2.00
2018-08-24T13:38:07.811Z,1.80
2018-08-24T13:40:36.969Z,1.90
2018-08-24T13:43:06.600Z,1.40
2018-08-24T13:45:35.798Z,1.20
2018-08-24T13:48:05.432Z,1.90
2018-08-24T13:50:34.605Z,1.70
2018-08-24T13:53:03.678Z,1.70
2018-08-24T13:55:33.231Z,1.57
2018-08-24T13:58:02.630Z,1.70
2018-08-24T14:00:31.872Z,1.90
2018-08-24T14:03:00.965Z,1.80
2018-08-24T14:05:30.822Z,1.43
2018-08-24T14:07:59.992Z,1.40
2018-08-24T14:10:29.186Z,1.83
2018-08-24T14:12:58.307Z,1.73
2018-08-24T14:15:27.421Z,1.60
2018-08-24T14:17:56.513Z,1.70
2018-08-24T14:20:25.702Z,1.77
2018-08-24T14:22:54.768Z,1.70
2018-08-24T14:25:23.924Z,1.90
2018-08-24T14:27:53.045Z,2.20
2018-08-24T14:30:22.158Z,1.70
2018-08-24T14:32:51.254Z,2.13
2018-08-24T14:35:20.310Z,1.67
2018-08-24T14:37:49.454Z,1.60
2018-08-24T14:40:18.521Z,2.07
2018-08-24T14:42:47.631Z,1.73
2018-08-24T14:45:16.775Z,1.70
2018-08-24T14:47:45.856Z,3.93
2018-08-24T14:50:14.971Z,1.90
2018-08-24T14:52:44.098Z,1.67
2018-08-24T14:55:13.205Z,2.00
2018-08-24T14:57:42.395Z,2.33
2018-08-24T15:00:11.543Z,1.70
2018-08-24T15:02:40.700Z,2.03
2018-08-24T15:05:11.263Z,2.07
2018-08-24T15:07:40.391Z,2.10
2018-08-24T15:10:10.308Z,2.70
2018-08-24T15:12:39.783Z,1.80
2018-08-24T15:15:09.029Z,2.00
2018-08-24T15:17:38.105Z,1.70
2018-08-24T15:20:08.046Z,1.60
2018-08-24T15:22:37.194Z,2.53
2018-08-24T15:25:06.372Z,1.53
2018-08-24T15:27:35.545Z,1.70
2018-08-24T15:30:04.724Z,1.53
2018-08-24T15:32:33.775Z,1.97
2018-08-24T15:35:02.926Z,1.73
2018-08-24T15:37:32.033Z,1.87
2018-08-24T15:40:01.151Z,1.87
2018-08-24T15:42:30.277Z,1.50
2018-08-24T15:44:59.401Z,1.43
2018-08-24T15:47:28.511Z,1.80
2018-08-24T15:49:57.644Z,2.00
2018-08-24T15:52:26.796Z,1.60
2018-08-24T15:54:56.228Z,1.50
2018-08-24T15:57:25.319Z,1.57
2018-08-24T15:59:54.519Z,1.50
2018-08-24T16:02:23.637Z,1.50
2018-08-24T16:04:52.799Z,1.57
2018-08-24T16:07:21.926Z,1.80
2018-08-24T16:09:50.997Z,1.70
2018-08-24T16:12:20.204Z,1.90
2018-08-24T16:14:49.237Z,2.10
2018-08-24T16:17:18.344Z,1.57
2018-08-24T16:19:47.460Z,1.90
2018-08-24T16:22:16.575Z,1.50
2018-08-24T16:24:45.692Z,1.93
2018-08-24T16:27:22.470Z,1.50
2018-08-24T16:29:52.974Z,1.57
2018-08-24T16:32:22.103Z,2.07
2018-08-24T16:34:54.498Z,1.50
2018-08-24T16:37:23.606Z,1.50
2018-08-24T16:39:52.674Z,1.40
2018-08-24T16:42:21.761Z,1.70
2018-08-24T16:44:50.852Z,2.10
2018-08-24T16:47:20.055Z,1.90
2018-08-24T16:49:49.159Z,1.90
2018-08-24T16:52:18.325Z,2.30
2018-08-24T16:54:47.436Z,1.77
2018-08-24T16:57:16.511Z,1.47
2018-08-24T16:59:45.585Z,1.57
2018-08-24T17:02:14.707Z,1.90
2018-08-24T17:04:43.801Z,2.00
2018-08-24T17:07:12.926Z,1.73
2018-08-24T17:09:42.025Z,1.03
2018-08-24T17:12:11.283Z,1.83
2018-08-24T17:14:40.481Z,1.60
2018-08-24T17:17:09.577Z,1.50
2018-08-24T17:19:38.689Z,1.53
2018-08-24T17:22:07.773Z,1.80
2018-08-24T17:24:36.915Z,1.33
2018-08-24T17:27:06.194Z,1.40
2018-08-24T17:29:35.411Z,1.40
2018-08-24T17:32:04.506Z,1.83
2018-08-24T17:34:33.637Z,9.43
2018-08-24T17:37:02.852Z,2.00
2018-08-24T17:39:31.954Z,1.77
2018-08-24T17:42:01.334Z,2.30
2018-08-24T17:44:30.485Z,2.00
2018-08-24T17:50:10.152Z,1.50
2018-08-24T17:52:59.424Z,1.67
2018-08-24T17:55:28.592Z,1.30
2018-08-24T17:57:57.695Z,1.67
2018-08-24T18:00:26.813Z,1.77
2018-08-24T18:02:55.931Z,1.77
2018-08-24T18:05:25.039Z,1.60
2018-08-24T18:07:54.150Z,1.83
2018-08-24T18:10:23.289Z,1.60
2018-08-24T18:12:52.470Z,1.43
2018-08-24T18:15:21.609Z,1.80
2018-08-24T18:17:50.785Z,1.57
2018-08-24T18:20:19.932Z,1.50
2018-08-24T18:22:49.058Z,1.87
2018-08-24T18:25:18.176Z,1.40
2018-08-24T18:27:47.294Z,2.40
2018-08-24T18:30:16.470Z,1.73
2018-08-24T18:32:45.526Z,1.23
2018-08-24T18:35:14.627Z,1.37
2018-08-24T18:37:43.725Z,1.50
2018-08-24T18:40:12.941Z,1.97
2018-08-24T18:42:42.230Z,1.60
2018-08-24T18:45:11.276Z,1.60
2018-08-24T18:47:40.401Z,2.10
2018-08-24T18:50:09.546Z,1.83
2018-08-24T18:52:38.754Z,1.87
2018-08-24T18:55:08.189Z,1.70
2018-08-24T18:57:37.299Z,1.90
2018-08-24T19:00:06.499Z,1.67
2018-08-24T19:02:35.581Z,1.93
2018-08-24T19:05:04.842Z,1.60
2018-08-24T19:07:33.937Z,1.40
2018-08-24T19:10:03.048Z,1.93
2018-08-24T19:12:32.166Z,1.93
2018-08-24T19:15:01.365Z,1.83
2018-08-24T19:17:36.536Z,1.87
2018-08-24T19:20:10.783Z,1.60
2018-08-24T19:22:43.268Z,1.70
2018-08-24T19:25:12.371Z,1.80
2018-08-24T19:27:46.861Z,1.80
2018-08-24T19:30:21.211Z,2.30
2018-08-24T19:32:50.264Z,2.20
2018-08-24T19:35:19.363Z,1.53
2018-08-24T19:37:48.454Z,1.50
2018-08-24T19:40:22.862Z,1.77
2018-08-24T19:42:52.011Z,1.70
2018-08-24T19:45:21.098Z,1.40
2018-08-24T19:47:55.459Z,1.53
2018-08-24T19:50:24.554Z,1.73
2018-08-24T19:52:53.755Z,1.77
2018-08-24T19:55:22.925Z,1.57
2018-08-24T19:57:57.187Z,1.70
2018-08-24T20:00:26.257Z,1.90
2018-08-24T20:02:55.397Z,1.40
2018-08-24T20:05:24.511Z,1.80
2018-08-24T20:07:58.800Z,1.80
2018-08-24T20:10:27.984Z,2.40
2018-08-24T20:12:57.109Z,2.33
2018-08-24T20:15:31.458Z,2.10
2018-08-24T20:18:00.624Z,2.40
2018-08-24T20:20:29.710Z,2.33
2018-08-24T20:22:58.859Z,2.57
2018-08-24T20:25:27.928Z,2.30
2018-08-24T20:27:57.026Z,2.80
2018-08-24T20:30:26.226Z,2.00
2018-08-24T20:32:55.421Z,2.63
2018-08-24T20:35:24.551Z,2.20
2018-08-24T20:37:53.723Z,2.33
2018-08-24T20:40:22.865Z,1.97
2018-08-24T20:42:52.067Z,2.20
2018-08-24T20:45:21.291Z,2.10
2018-08-24T20:47:50.448Z,2.23
2018-08-24T20:50:19.522Z,2.20
2018-08-24T20:52:48.609Z,2.13
2018-08-24T20:55:17.741Z,2.13
2018-08-24T20:57:46.790Z,1.83
2018-08-24T21:00:15.917Z,2.50
2018-08-24T21:02:45.023Z,2.03
2018-08-24T21:05:14.149Z,2.07
2018-08-24T21:07:43.225Z,1.93
2018-08-24T21:10:12.286Z,2.23
2018-08-24T21:12:41.621Z,1.93
2018-08-24T21:15:10.660Z,2.47
2018-08-24T21:17:39.839Z,2.00
2018-08-24T21:20:08.900Z,1.73
2018-08-24T21:22:38.005Z,2.10
2018-08-24T21:25:07.661Z,1.87
2018-08-24T21:27:36.824Z,1.50
2018-08-24T21:30:06.361Z,1.60
2018-08-24T21:32:35.450Z,2.33
2018-08-24T21:35:04.668Z,2.30
2018-08-24T21:37:33.817Z,2.17
2018-08-24T21:40:02.905Z,2.00
2018-08-24T21:42:32.032Z,1.87
2018-08-24T21:45:01.195Z,2.03
2018-08-24T21:47:30.319Z,2.00
2018-08-24T21:49:59.374Z,1.40
2018-08-24T21:52:28.495Z,1.90
2018-08-24T21:54:57.546Z,2.10
2018-08-24T21:57:26.628Z,2.20
2018-08-24T21:59:55.736Z,2.13
2018-08-24T22:02:24.831Z,2.20
2018-08-24T22:04:53.949Z,1.77
2018-08-24T22:07:23.009Z,2.00
2018-08-24T22:09:52.375Z,1.90
2018-08-24T22:12:21.540Z,1.60
2018-08-24T22:14:50.736Z,1.87
2018-08-24T22:17:19.850Z,2.27
2018-08-24T22:19:48.906Z,1.80
2018-08-24T22:22:18.017Z,1.70
2018-08-24T22:24:47.098Z,2.37
2018-08-24T22:27:16.150Z,1.40
2018-08-24T22:29:45.535Z,1.40
2018-08-24T22:32:14.664Z,1.60
2018-08-24T22:34:43.748Z,1.20
2018-08-24T22:37:12.845Z,1.97
2018-08-24T22:39:41.927Z,1.40
2018-08-24T22:42:11.044Z,1.60
2018-08-24T22:44:40.132Z,1.40
2018-08-24T22:47:09.211Z,1.50
2018-08-24T22:49:41.359Z,2.50
2018-08-24T22:52:13.950Z,1.70
2018-08-24T22:54:46.565Z,1.50
2018-08-24T22:57:19.081Z,1.57
2018-08-24T22:59:51.176Z,1.60
2018-08-24T23:02:23.729Z,1.23
2018-08-24T23:04:56.752Z,1.40
2018-08-24T23:07:29.304Z,1.77
2018-08-24T23:10:01.415Z,1.43
2018-08-24T23:12:33.904Z,1.20
2018-08-24T23:15:06.024Z,1.50
2018-08-24T23:17:38.389Z,1.57
2018-08-24T23:20:10.888Z,1.10
2018-08-24T23:22:43.939Z,1.20
2018-08-24T23:25:16.027Z,1.30
2018-08-24T23:27:48.479Z,1.50
2018-08-24T23:30:21.055Z,1.80
2018-08-24T23:32:53.598Z,1.53
2018-08-24T23:35:25.637Z,1.50
2018-08-24T23:37:58.161Z,1.40
2018-08-24T23:40:30.671Z,1.53
2018-08-24T23:43:03.190Z,1.33
2018-08-24T23:45:35.734Z,1.47
2018-08-24T23:48:07.445Z,1.30
2018-08-24T23:50:39.874Z,0.93
2018-08-24T23:53:11.922Z,1.77
2018-08-24T23:55:44.473Z,1.57
2018-08-24T23:58:16.984Z,1.70
